Time;durP1;ratioP1;P1;durP2;ratioP2;P2;SDS_P1;SDS_P2;PMS_P1;PMS_P2;Temp;Humidity;BMP_temperature;BMP_pressure;BME280_temperature;BME280_humidity;BME280_pressure;Samples;Min_cycle;Max_cycle;Signal;HPM_P1;HPM_P2
2022/10/07 00:00:20;;;;;;;;;;;19.10;66.50;;;;;;5038966;27;90823;-51
2022/10/07 00:02:46;;;;;;;;;;;19.20;66.50;;;;;;5050986;27;91804;-51
2022/10/07 00:05:11;;;;;;;;;;;19.10;66.30;;;;;;5052243;27;90194;-47
2022/10/07 00:07:37;;;;;;;;;;;19.10;66.30;;;;;;5042747;27;91100;-50
2022/10/07 00:10:03;;;;;;;;;;;19.10;66.50;;;;;;5050689;27;90883;-51
2022/10/07 00:12:29;;;;;;;;;;;19.20;66.50;;;;;;5045331;27;89855;-49
2022/10/07 00:14:54;;;;;;;;;;;19.10;66.50;;;;;;5053473;27;93261;-48
2022/10/07 00:17:20;;;;;;;;;;;19.10;66.50;;;;;;5033038;27;89791;-53
2022/10/07 00:19:45;;;;;;;;;;;19.20;66.30;;;;;;5043388;27;89497;-55
2022/10/07 00:22:11;;;;;;;;;;;19.20;66.10;;;;;;5049467;27;89641;-53
2022/10/07 00:24:37;;;;;;;;;;;19.20;66.00;;;;;;5028733;27;94217;-50
2022/10/07 00:27:03;;;;;;;;;;;19.20;66.10;;;;;;5034541;27;90305;-49
2022/10/07 00:29:28;;;;;;;;;;;19.10;66.10;;;;;;5038686;27;89957;-52
2022/10/07 00:31:54;;;;;;;;;;;19.10;66.00;;;;;;5045082;27;89980;-50
2022/10/07 00:34:19;;;;;;;;;;;19.20;65.90;;;;;;5042282;27;90657;-50
2022/10/07 00:36:45;;;;;;;;;;;19.10;66.00;;;;;;5027213;27;90610;-48
2022/10/07 00:39:12;;;;;;;;;;;19.10;66.30;;;;;;5038781;27;90598;-49
2022/10/07 00:41:42;;;;;;;;;;;19.00;66.30;;;;;;5050108;27;89911;-48
2022/10/07 00:44:26;;;;;;;;;;;19.10;66.00;;;;;;5042650;27;90934;-48
2022/10/07 00:46:54;;;;;;;;;;;19.00;66.10;;;;;;5032775;27;94268;-51
2022/10/07 00:49:19;;;;;;;;;;;18.90;66.50;;;;;;5047642;27;93270;-48
2022/10/07 00:51:45;;;;;;;;;;;18.90;66.80;;;;;;5044116;27;89407;-48
2022/10/07 00:54:13;;;;;;;;;;;18.80;66.80;;;;;;5048457;27;90458;-49
2022/10/07 00:56:40;;;;;;;;;;;18.90;66.80;;;;;;5041794;27;90269;-49
2022/10/07 00:59:05;;;;;;;;;;;18.80;66.80;;;;;;5049559;27;90814;-51
2022/10/07 01:01:31;;;;;;;;;;;18.90;66.70;;;;;;5050009;27;90725;-49
2022/10/07 01:03:56;;;;;;;;;;;18.90;66.70;;;;;;5040766;27;90706;-50
2022/10/07 01:06:22;;;;;;;;;;;18.90;66.60;;;;;;5045932;27;90747;-49
2022/10/07 01:08:49;;;;;;;;;;;18.80;66.60;;;;;;5037747;27;89442;-48
2022/10/07 01:11:33;;;;;;;;;;;18.80;66.80;;;;;;5055167;27;90537;-48
2022/10/07 01:14:06;;;;;;;;;;;18.80;66.60;;;;;;5047494;27;93356;-51
2022/10/07 01:16:38;;;;;;;;;;;18.80;66.80;;;;;;5050835;27;90293;-48
2022/10/07 01:19:09;;;;;;;;;;;18.80;66.50;;;;;;5053170;27;90146;-46
2022/10/07 01:21:35;;;;;;;;;;;18.80;66.70;;;;;;5041582;27;89894;-46
2022/10/07 01:24:08;;;;;;;;;;;18.70;66.80;;;;;;5040289;27;92882;-51
2022/10/07 01:26:37;;;;;;;;;;;18.70;66.80;;;;;;5048176;27;90516;-48
2022/10/07 01:29:06;;;;;;;;;;;18.80;66.70;;;;;;5045981;27;89912;-46
2022/10/07 01:31:37;;;;;;;;;;;18.80;66.40;;;;;;5039394;27;90830;-48
2022/10/07 01:34:03;;;;;;;;;;;18.80;66.60;;;;;;5045373;27;91988;-49
2022/10/07 01:36:31;;;;;;;;;;;18.80;66.60;;;;;;5043856;27;90016;-47
2022/10/07 01:39:01;;;;;;;;;;;18.70;66.80;;;;;;5052188;27;89808;-50
2022/10/07 01:41:27;;;;;;;;;;;18.70;66.20;;;;;;5043147;27;92479;-49
2022/10/07 01:43:53;;;;;;;;;;;18.70;66.50;;;;;;5045833;27;90538;-49
2022/10/07 01:46:24;;;;;;;;;;;18.80;66.30;;;;;;5039170;27;90727;-48
2022/10/07 01:48:50;;;;;;;;;;;18.70;66.40;;;;;;5046650;27;91218;-55
2022/10/07 01:51:16;;;;;;;;;;;18.70;66.50;;;;;;5049748;27;89885;-48
2022/10/07 01:53:48;;;;;;;;;;;18.60;66.90;;;;;;5054377;27;89646;-48
2022/10/07 01:56:22;;;;;;;;;;;18.60;66.80;;;;;;5042080;27;89819;-48
2022/10/07 01:59:05;;;;;;;;;;;18.60;67.30;;;;;;5046909;27;92936;-48
2022/10/07 02:01:37;;;;;;;;;;;18.60;66.80;;;;;;5043055;27;89861;-48
2022/10/07 02:04:15;;;;;;;;;;;18.60;67.50;;;;;;5050398;27;90498;-49
2022/10/07 02:06:50;;;;;;;;;;;18.60;66.90;;;;;;5043500;27;89743;-53
2022/10/07 02:09:27;;;;;;;;;;;18.60;66.80;;;;;;5048273;27;90486;-47
2022/10/07 02:11:56;;;;;;;;;;;18.60;66.50;;;;;;5048930;27;89949;-48
2022/10/07 02:14:24;;;;;;;;;;;18.60;66.70;;;;;;5050103;27;90950;-49
2022/10/07 02:16:52;;;;;;;;;;;18.50;66.80;;;;;;5030776;27;90999;-47
2022/10/07 02:19:22;;;;;;;;;;;18.50;66.90;;;;;;5045145;27;90033;-46
2022/10/07 02:21:49;;;;;;;;;;;18.40;66.90;;;;;;5025947;27;96840;-47
2022/10/07 02:24:17;;;;;;;;;;;18.40;67.00;;;;;;5042072;27;93351;-50
2022/10/07 02:26:43;;;;;;;;;;;18.50;66.80;;;;;;5031680;27;91906;-51
2022/10/07 02:29:11;;;;;;;;;;;18.40;67.00;;;;;;5044774;27;89801;-48
2022/10/07 02:31:40;;;;;;;;;;;18.50;67.00;;;;;;5045037;27;88893;-50
2022/10/07 02:34:06;;;;;;;;;;;18.40;67.00;;;;;;5047912;27;90941;-50
2022/10/07 02:36:37;;;;;;;;;;;18.50;66.70;;;;;;5043521;27;89769;-51
2022/10/07 02:39:02;;;;;;;;;;;18.50;66.80;;;;;;5042038;27;93272;-51
2022/10/07 02:41:43;;;;;;;;;;;18.50;66.70;;;;;;5044280;27;91122;-48
2022/10/07 02:44:25;;;;;;;;;;;18.50;66.70;;;;;;5040273;27;91034;-50
2022/10/07 02:47:13;;;;;;;;;;;18.50;66.50;;;;;;5045759;27;91392;-49
2022/10/07 02:49:40;;;;;;;;;;;18.40;66.80;;;;;;4979985;27;95137;-47
2022/10/07 02:52:10;;;;;;;;;;;18.50;66.70;;;;;;5024444;27;91964;-47
2022/10/07 02:55:05;;;;;;;;;;;18.50;66.60;;;;;;5036611;27;90250;-48
2022/10/07 02:57:33;;;;;;;;;;;18.50;66.70;;;;;;5022639;27;88788;-50
2022/10/07 03:00:00;;;;;;;;;;;18.40;66.80;;;;;;5034253;27;89670;-53
2022/10/07 03:02:51;;;;;;;;;;;18.50;66.50;;;;;;5047443;27;89712;-53
2022/10/07 03:05:19;;;;;;;;;;;18.40;66.60;;;;;;5052813;27;92735;-47
2022/10/07 03:07:46;;;;;;;;;;;18.40;66.40;;;;;;5049185;27;90313;-50
2022/10/07 03:10:12;;;;;;;;;;;18.40;66.50;;;;;;5054438;27;89998;-49
2022/10/07 03:12:38;;;;;;;;;;;18.30;66.50;;;;;;5049516;27;89620;-52
2022/10/07 03:15:04;;;;;;;;;;;18.30;66.60;;;;;;5031273;27;94821;-49
2022/10/07 03:17:29;;;;;;;;;;;18.30;66.60;;;;;;5056417;27;90742;-49
2022/10/07 03:19:55;;;;;;;;;;;18.40;66.60;;;;;;5045547;27;90086;-47
2022/10/07 03:22:20;;;;;;;;;;;18.40;66.60;;;;;;5049588;27;90750;-50
2022/10/07 03:24:46;;;;;;;;;;;18.30;66.60;;;;;;5046912;27;89962;-47
2022/10/07 03:27:11;;;;;;;;;;;18.40;66.70;;;;;;5049826;27;89826;-50
2022/10/07 03:29:37;;;;;;;;;;;18.30;66.50;;;;;;5044600;27;91354;-50
2022/10/07 03:32:02;;;;;;;;;;;18.30;66.50;;;;;;5053938;27;89554;-54
2022/10/07 03:34:30;;;;;;;;;;;18.30;66.50;;;;;;5044962;27;89890;-48
2022/10/07 03:36:56;;;;;;;;;;;18.30;66.60;;;;;;5045820;27;93021;-52
2022/10/07 03:39:21;;;;;;;;;;;18.30;66.60;;;;;;5032363;27;89781;-54
2022/10/07 03:41:48;;;;;;;;;;;18.30;66.80;;;;;;5053797;27;90016;-46
2022/10/07 03:44:14;;;;;;;;;;;18.30;66.60;;;;;;5049741;27;91273;-47
2022/10/07 03:46:40;;;;;;;;;;;18.30;66.60;;;;;;5048637;27;89292;-49
2022/10/07 03:49:05;;;;;;;;;;;18.30;67.00;;;;;;5049922;27;90011;-52
2022/10/07 03:51:31;;;;;;;;;;;18.30;66.30;;;;;;5052438;27;90004;-49
2022/10/07 03:53:57;;;;;;;;;;;18.30;66.10;;;;;;5046023;27;91054;-47
2022/10/07 03:56:23;;;;;;;;;;;18.30;66.50;;;;;;5052352;27;90491;-46
2022/10/07 03:58:49;;;;;;;;;;;18.20;66.50;;;;;;5041221;27;90450;-50
2022/10/07 04:01:14;;;;;;;;;;;18.20;66.50;;;;;;5039130;27;92086;-52
2022/10/07 04:03:40;;;;;;;;;;;18.20;66.50;;;;;;5049602;27;89879;-51
2022/10/07 04:06:06;;;;;;;;;;;18.20;66.50;;;;;;5054164;27;90056;-50
2022/10/07 04:08:32;;;;;;;;;;;18.20;66.40;;;;;;5040265;27;90717;-50
2022/10/07 04:10:57;;;;;;;;;;;18.20;66.40;;;;;;5039558;27;89854;-49
2022/10/07 04:13:23;;;;;;;;;;;18.10;66.60;;;;;;5039263;27;90467;-49
2022/10/07 04:15:49;;;;;;;;;;;18.20;66.80;;;;;;5047564;27;91612;-54
2022/10/07 04:18:15;;;;;;;;;;;18.20;66.30;;;;;;5048726;27;90932;-49
2022/10/07 04:20:41;;;;;;;;;;;18.20;66.40;;;;;;5041576;27;89644;-48
2022/10/07 04:23:06;;;;;;;;;;;18.20;66.40;;;;;;5040392;27;94258;-49
2022/10/07 04:25:32;;;;;;;;;;;18.10;66.40;;;;;;5042245;27;91037;-49
2022/10/07 04:27:58;;;;;;;;;;;18.10;66.50;;;;;;5039676;27;91850;-50
2022/10/07 04:30:25;;;;;;;;;;;18.10;66.50;;;;;;5054331;27;89871;-49
2022/10/07 04:32:50;;;;;;;;;;;18.10;66.50;;;;;;5050287;27;96710;-49
2022/10/07 04:35:17;;;;;;;;;;;18.10;66.40;;;;;;5053803;27;91380;-51
2022/10/07 04:37:42;;;;;;;;;;;18.10;66.70;;;;;;5043849;27;92692;-46
2022/10/07 04:40:09;;;;;;;;;;;18.10;66.50;;;;;;5043685;27;94597;-52
2022/10/07 04:45:18;;;;;;;;;;;18.10;66.50;;;;;;5037669;27;90454;-49
2022/10/07 04:47:44;;;;;;;;;;;18.10;66.40;;;;;;5044956;27;90031;-49
2022/10/07 04:50:10;;;;;;;;;;;18.10;66.20;;;;;;5058472;27;90156;-51
2022/10/07 04:52:38;;;;;;;;;;;18.10;66.40;;;;;;5044944;27;90116;-49
2022/10/07 04:55:04;;;;;;;;;;;18.10;66.40;;;;;;5031836;27;90170;-50
2022/10/07 04:57:29;;;;;;;;;;;18.10;66.20;;;;;;5042684;27;90086;-47
2022/10/07 04:59:55;;;;;;;;;;;18.10;66.10;;;;;;5049293;27;89027;-49
2022/10/07 05:02:20;;;;;;;;;;;18.00;66.30;;;;;;5045956;27;90177;-49
2022/10/07 05:04:46;;;;;;;;;;;18.00;66.50;;;;;;5039262;27;89772;-50
2022/10/07 05:07:11;;;;;;;;;;;18.00;66.50;;;;;;5037378;27;92216;-51
2022/10/07 05:09:37;;;;;;;;;;;18.00;66.30;;;;;;5040480;27;94911;-49
2022/10/07 05:12:03;;;;;;;;;;;18.10;66.20;;;;;;5047400;27;89806;-46
2022/10/07 05:14:31;;;;;;;;;;;18.10;66.10;;;;;;5045444;27;89928;-48
2022/10/07 05:16:57;;;;;;;;;;;18.00;66.20;;;;;;5032001;27;89567;-49
2022/10/07 05:19:22;;;;;;;;;;;18.00;66.40;;;;;;5043664;27;89696;-48
2022/10/07 05:21:48;;;;;;;;;;;18.00;66.30;;;;;;5027731;27;90813;-47
2022/10/07 05:24:13;;;;;;;;;;;18.00;66.30;;;;;;5028843;27;89130;-48
2022/10/07 05:26:39;;;;;;;;;;;18.00;66.60;;;;;;5033996;27;89438;-48
2022/10/07 05:29:05;;;;;;;;;;;18.00;66.70;;;;;;5044296;27;89765;-51
2022/10/07 05:31:31;;;;;;;;;;;18.00;66.70;;;;;;5041665;27;95714;-50
2022/10/07 05:33:56;;;;;;;;;;;18.00;66.50;;;;;;5043882;27;94342;-51
2022/10/07 05:36:22;;;;;;;;;;;18.00;66.60;;;;;;5045481;27;90251;-50
2022/10/07 05:38:48;;;;;;;;;;;17.90;66.80;;;;;;5045882;27;89990;-47
2022/10/07 05:41:13;;;;;;;;;;;18.00;67.00;;;;;;5039808;27;91216;-50
2022/10/07 05:43:41;;;;;;;;;;;18.00;66.70;;;;;;5037639;27;89666;-48
2022/10/07 05:46:10;;;;;;;;;;;18.00;66.70;;;;;;5042904;27;90816;-52
2022/10/07 05:48:35;;;;;;;;;;;18.00;66.90;;;;;;5059801;27;89108;-49
2022/10/07 05:51:01;;;;;;;;;;;17.90;66.90;;;;;;5057901;27;90241;-52
2022/10/07 05:53:27;;;;;;;;;;;17.90;67.00;;;;;;5045436;27;93309;-47
2022/10/07 05:55:53;;;;;;;;;;;17.90;67.30;;;;;;5045662;27;90457;-50
2022/10/07 05:58:18;;;;;;;;;;;18.00;66.70;;;;;;5052811;27;89892;-47
2022/10/07 06:00:54;;;;;;;;;;;18.10;66.50;;;;;;5039032;27;90519;-50
2022/10/07 06:03:20;;;;;;;;;;;18.40;65.80;;;;;;5040024;27;90310;-48
2022/10/07 06:05:46;;;;;;;;;;;18.50;65.00;;;;;;5049279;27;90190;-49
2022/10/07 06:08:12;;;;;;;;;;;18.40;65.00;;;;;;5057607;27;89948;-50
2022/10/07 06:13:22;;;;;;;;;;;18.60;64.60;;;;;;5039988;27;91627;-50
2022/10/07 06:15:49;;;;;;;;;;;18.60;64.30;;;;;;5042407;27;89596;-50
2022/10/07 06:18:14;;;;;;;;;;;18.70;64.70;;;;;;5055926;27;89376;-48
2022/10/07 06:20:40;;;;;;;;;;;18.70;64.20;;;;;;5050894;27;92746;-46
2022/10/07 06:23:06;;;;;;;;;;;18.60;64.30;;;;;;5047741;27;92970;-47
2022/10/07 06:25:31;;;;;;;;;;;18.60;64.70;;;;;;5043751;27;90022;-50
2022/10/07 06:27:58;;;;;;;;;;;18.70;64.20;;;;;;5046557;27;90109;-49
2022/10/07 06:30:24;;;;;;;;;;;18.60;64.30;;;;;;5029238;27;90142;-47
2022/10/07 06:32:50;;;;;;;;;;;18.50;65.00;;;;;;5025346;27;89974;-50
2022/10/07 06:35:15;;;;;;;;;;;18.50;65.50;;;;;;5049878;27;90172;-50
2022/10/07 06:37:41;;;;;;;;;;;18.40;65.90;;;;;;5053053;27;91088;-52
2022/10/07 06:40:06;;;;;;;;;;;18.40;66.00;;;;;;5033338;27;90161;-48
2022/10/07 06:42:32;;;;;;;;;;;18.40;65.50;;;;;;5034738;27;90366;-53
2022/10/07 06:44:58;;;;;;;;;;;18.20;65.50;;;;;;5048315;27;90641;-46
2022/10/07 06:47:23;;;;;;;;;;;18.20;66.40;;;;;;5040298;27;90550;-47
2022/10/07 06:49:49;;;;;;;;;;;18.10;66.60;;;;;;5038616;27;90276;-46
2022/10/07 06:52:14;;;;;;;;;;;18.10;67.00;;;;;;5046875;27;90942;-54
2022/10/07 06:54:40;;;;;;;;;;;18.10;67.70;;;;;;5044464;27;89823;-49
2022/10/07 06:57:06;;;;;;;;;;;18.10;67.90;;;;;;5036440;27;89630;-49
2022/10/07 06:59:31;;;;;;;;;;;18.20;68.10;;;;;;5030947;27;90942;-51
2022/10/07 07:01:57;;;;;;;;;;;18.30;67.20;;;;;;5033279;27;90225;-51
2022/10/07 07:04:24;;;;;;;;;;;18.50;67.00;;;;;;5030777;27;90952;-51
2022/10/07 07:06:49;;;;;;;;;;;18.60;67.70;;;;;;5047543;27;92633;-51
2022/10/07 07:09:15;;;;;;;;;;;18.70;66.70;;;;;;5041533;27;92819;-51
2022/10/07 07:11:42;;;;;;;;;;;18.70;66.90;;;;;;5051106;27;90744;-50
2022/10/07 07:14:09;;;;;;;;;;;18.70;67.00;;;;;;5033721;27;94619;-49
2022/10/07 07:16:35;;;;;;;;;;;18.70;66.80;;;;;;5048617;27;90665;-50
2022/10/07 07:19:01;;;;;;;;;;;18.80;66.70;;;;;;5048783;27;90726;-48
2022/10/07 07:21:30;;;;;;;;;;;18.80;66.60;;;;;;5040979;27;90150;-49
2022/10/07 07:23:56;;;;;;;;;;;18.80;66.60;;;;;;5045867;27;89941;-51
2022/10/07 07:26:22;;;;;;;;;;;18.80;66.70;;;;;;5046993;27;92740;-53
2022/10/07 07:28:58;;;;;;;;;;;18.90;66.80;;;;;;5037065;27;91133;-51
2022/10/07 07:31:25;;;;;;;;;;;18.90;66.30;;;;;;5046344;27;89974;-51
2022/10/07 07:33:53;;;;;;;;;;;18.90;66.30;;;;;;5049201;27;90883;-48
2022/10/07 07:36:21;;;;;;;;;;;18.90;66.50;;;;;;5038639;27;90552;-52
2022/10/07 07:38:50;;;;;;;;;;;18.90;66.60;;;;;;5042095;27;90096;-50
2022/10/07 07:41:16;;;;;;;;;;;18.90;66.40;;;;;;5037444;27;91129;-51
2022/10/07 07:43:42;;;;;;;;;;;19.00;66.30;;;;;;5050258;27;89547;-53
2022/10/07 07:46:07;;;;;;;;;;;19.00;66.10;;;;;;5042316;27;90970;-50
2022/10/07 07:48:33;;;;;;;;;;;19.10;65.40;;;;;;5049010;27;92704;-56
2022/10/07 07:50:59;;;;;;;;;;;19.10;65.50;;;;;;5047674;27;89067;-49
2022/10/07 07:53:24;;;;;;;;;;;19.20;65.40;;;;;;5039399;27;93734;-53
2022/10/07 07:55:51;;;;;;;;;;;19.20;66.60;;;;;;5038296;27;89927;-53
2022/10/07 07:58:16;;;;;;;;;;;19.20;67.20;;;;;;5043138;27;91090;-52
2022/10/07 08:00:42;;;;;;;;;;;19.20;67.50;;;;;;5032388;27;93982;-52
2022/10/07 08:03:07;;;;;;;;;;;19.00;67.40;;;;;;5045365;27;90750;-53
2022/10/07 08:05:33;;;;;;;;;;;18.90;67.30;;;;;;5045134;27;89719;-53
2022/10/07 08:07:59;;;;;;;;;;;18.90;68.00;;;;;;5048142;27;91601;-53
2022/10/07 08:10:25;;;;;;;;;;;18.90;67.50;;;;;;5044734;27;91969;-49
2022/10/07 08:12:50;;;;;;;;;;;18.90;66.90;;;;;;5035584;27;90335;-51
2022/10/07 08:15:16;;;;;;;;;;;18.90;67.80;;;;;;5048782;27;89310;-50
2022/10/07 08:17:42;;;;;;;;;;;18.90;67.20;;;;;;5044563;27;89563;-51
2022/10/07 08:20:09;;;;;;;;;;;18.90;67.00;;;;;;5047606;27;93354;-53
2022/10/07 08:22:35;;;;;;;;;;;18.80;67.10;;;;;;5041464;27;90822;-52
2022/10/07 08:25:00;;;;;;;;;;;18.90;67.60;;;;;;5052814;27;90312;-54
2022/10/07 08:27:27;;;;;;;;;;;18.90;67.50;;;;;;5038225;27;90346;-52
2022/10/07 08:29:53;;;;;;;;;;;18.90;67.30;;;;;;5048071;27;90479;-49
2022/10/07 08:32:18;;;;;;;;;;;18.90;67.40;;;;;;5047402;27;91413;-53
2022/10/07 08:34:44;;;;;;;;;;;18.90;67.80;;;;;;5046157;27;91232;-53
2022/10/07 08:37:09;;;;;;;;;;;18.90;67.80;;;;;;5056474;27;89778;-54
2022/10/07 08:39:35;;;;;;;;;;;18.90;67.80;;;;;;5047881;27;89570;-53
2022/10/07 08:42:27;;;;;;;;;;;18.90;68.30;;;;;;5045497;27;90027;-52
2022/10/07 08:44:52;;;;;;;;;;;19.00;67.40;;;;;;5036229;27;96244;-49
2022/10/07 08:47:38;;;;;;;;;;;19.10;66.80;;;;;;5052063;27;91574;-56
2022/10/07 08:50:07;;;;;;;;;;;19.00;67.10;;;;;;5048778;27;90986;-51
2022/10/07 08:52:38;;;;;;;;;;;19.10;66.90;;;;;;5046911;27;89523;-52
2022/10/07 08:55:23;;;;;;;;;;;19.10;66.80;;;;;;5049132;27;89683;-52
2022/10/07 08:57:53;;;;;;;;;;;19.10;66.90;;;;;;5045414;27;90223;-54
2022/10/07 09:00:20;;;;;;;;;;;19.00;67.40;;;;;;5038041;27;92781;-53
2022/10/07 09:03:05;;;;;;;;;;;19.00;68.70;;;;;;5039568;27;89813;-50
2022/10/07 09:05:33;;;;;;;;;;;18.90;70.20;;;;;;5035515;27;88949;-55
2022/10/07 09:08:05;;;;;;;;;;;19.00;69.40;;;;;;5037388;27;91790;-51
2022/10/07 09:10:52;;;;;;;;;;;19.00;69.10;;;;;;5031719;27;91952;-50
2022/10/07 09:13:19;;;;;;;;;;;19.00;69.10;;;;;;5047577;27;91910;-53
2022/10/07 09:15:49;;;;;;;;;;;19.00;68.80;;;;;;5037627;27;93691;-50
2022/10/07 09:18:21;;;;;;;;;;;19.20;68.30;;;;;;5034233;27;90077;-50
2022/10/07 09:20:53;;;;;;;;;;;19.00;68.20;;;;;;5039858;27;97768;-51
2022/10/07 09:23:21;;;;;;;;;;;19.10;68.10;;;;;;5038553;27;91699;-53
2022/10/07 09:25:47;;;;;;;;;;;19.20;67.30;;;;;;5045209;27;96698;-48
2022/10/07 09:28:14;;;;;;;;;;;19.20;67.20;;;;;;5042750;27;89956;-52
2022/10/07 09:30:41;;;;;;;;;;;19.10;68.00;;;;;;5040327;27;89315;-54
2022/10/07 09:33:19;;;;;;;;;;;19.20;67.60;;;;;;5040478;27;92324;-51
2022/10/07 09:35:51;;;;;;;;;;;19.20;67.50;;;;;;5044081;27;90083;-51
2022/10/07 09:38:27;;;;;;;;;;;19.20;68.10;;;;;;5028921;27;91383;-51
2022/10/07 09:44:21;;;;;;;;;;;19.20;68.40;;;;;;5033979;27;91783;-56
2022/10/07 09:46:53;;;;;;;;;;;19.20;68.10;;;;;;5045866;27;90014;-53
2022/10/07 09:49:28;;;;;;;;;;;19.30;67.80;;;;;;5044663;27;89978;-48
2022/10/07 09:51:57;;;;;;;;;;;19.40;67.60;;;;;;5045293;27;93338;-55
2022/10/07 09:54:24;;;;;;;;;;;19.50;66.40;;;;;;5045413;27;90148;-47
2022/10/07 09:56:53;;;;;;;;;;;19.40;66.50;;;;;;5051201;27;89269;-51
2022/10/07 09:59:23;;;;;;;;;;;19.40;66.10;;;;;;5052360;27;92572;-53
2022/10/07 10:01:49;;;;;;;;;;;19.30;66.20;;;;;;5042964;27;92217;-49
2022/10/07 10:04:18;;;;;;;;;;;19.40;66.30;;;;;;5049275;27;92442;-52
2022/10/07 10:06:48;;;;;;;;;;;19.50;66.00;;;;;;5062716;27;93405;-49
2022/10/07 10:09:18;;;;;;;;;;;19.50;66.10;;;;;;5031805;27;93540;-51
2022/10/07 10:11:44;;;;;;;;;;;19.40;65.90;;;;;;5046209;27;89727;-53
2022/10/07 10:14:35;;;;;;;;;;;19.40;65.90;;;;;;5021197;27;92388;-49
2022/10/07 10:17:02;;;;;;;;;;;19.40;66.00;;;;;;5039972;27;90509;-51
2022/10/07 10:19:28;;;;;;;;;;;19.50;65.80;;;;;;5029382;27;90959;-51
2022/10/07 10:21:55;;;;;;;;;;;19.50;65.70;;;;;;5040774;27;89422;-51
2022/10/07 10:26:24;;;;;;;;;;;19.60;65.40;;;;;;5049593;27;89959;-54
2022/10/07 10:27:09;;;;;;;;;;;19.80;65.10;;;;;;5052656;27;89836;-52
2022/10/07 10:29:35;;;;;;;;;;;19.90;65.20;;;;;;5046935;27;90890;-49
2022/10/07 10:32:00;;;;;;;;;;;19.90;65.30;;;;;;5050982;27;90402;-47
2022/10/07 10:34:26;;;;;;;;;;;19.90;65.40;;;;;;5053479;27;89851;-48
2022/10/07 10:36:55;;;;;;;;;;;19.80;65.30;;;;;;5050277;27;90988;-49
2022/10/07 10:39:26;;;;;;;;;;;19.90;65.30;;;;;;5057576;27;91148;-52
2022/10/07 10:41:55;;;;;;;;;;;19.90;65.20;;;;;;5050444;27;92021;-50
2022/10/07 10:44:34;;;;;;;;;;;19.90;65.00;;;;;;5046519;27;90064;-50
2022/10/07 10:47:06;;;;;;;;;;;19.80;65.90;;;;;;5043293;27;89797;-46
2022/10/07 10:49:34;;;;;;;;;;;19.70;67.00;;;;;;5049395;27;92033;-49
2022/10/07 10:52:01;;;;;;;;;;;19.80;66.80;;;;;;5043883;27;91211;-49
2022/10/07 10:54:39;;;;;;;;;;;19.80;67.00;;;;;;5046471;27;91111;-48
2022/10/07 10:57:04;;;;;;;;;;;19.80;67.20;;;;;;5046052;27;91836;-49
2022/10/07 10:59:32;;;;;;;;;;;19.80;67.70;;;;;;5046972;27;90270;-50
2022/10/07 11:02:14;;;;;;;;;;;19.80;67.90;;;;;;5044959;27;89831;-49
2022/10/07 11:04:45;;;;;;;;;;;19.90;68.00;;;;;;5051292;27;90252;-50
2022/10/07 11:07:20;;;;;;;;;;;19.80;67.40;;;;;;5052881;27;89519;-47
2022/10/07 11:09:48;;;;;;;;;;;19.80;68.20;;;;;;5030472;27;90054;-49
2022/10/07 11:12:20;;;;;;;;;;;19.80;68.20;;;;;;5044717;27;91031;-46
2022/10/07 11:14:48;;;;;;;;;;;19.80;68.40;;;;;;5046931;27;95181;-48
2022/10/07 11:17:14;;;;;;;;;;;19.80;68.40;;;;;;5051568;27;89564;-48
2022/10/07 11:19:46;;;;;;;;;;;19.80;68.60;;;;;;5046225;27;91486;-50
2022/10/07 11:22:14;;;;;;;;;;;19.80;68.70;;;;;;5048157;27;89648;-47
2022/10/07 11:24:53;;;;;;;;;;;19.80;68.50;;;;;;5039089;27;92363;-47
2022/10/07 11:27:19;;;;;;;;;;;19.80;68.60;;;;;;5050641;27;89498;-52
2022/10/07 11:29:49;;;;;;;;;;;19.70;68.60;;;;;;5042955;27;95403;-49
2022/10/07 11:32:15;;;;;;;;;;;19.80;68.80;;;;;;5049236;27;90854;-48
2022/10/07 11:34:45;;;;;;;;;;;19.70;68.60;;;;;;5050960;27;89548;-48
2022/10/07 11:37:17;;;;;;;;;;;19.70;68.60;;;;;;5049434;27;89382;-53
2022/10/07 11:39:43;;;;;;;;;;;19.80;68.90;;;;;;5049554;27;91111;-49
2022/10/07 11:42:11;;;;;;;;;;;19.80;68.70;;;;;;5053583;27;90278;-51
2022/10/07 11:44:40;;;;;;;;;;;19.80;68.40;;;;;;5053632;27;90977;-49
2022/10/07 11:47:10;;;;;;;;;;;19.80;67.80;;;;;;5049209;27;89473;-49
2022/10/07 11:49:41;;;;;;;;;;;19.70;70.10;;;;;;5049755;27;89674;-48
2022/10/07 11:52:18;;;;;;;;;;;19.80;70.50;;;;;;5030742;27;90003;-50
2022/10/07 11:54:58;;;;;;;;;;;19.90;71.10;;;;;;5052490;27;89917;-47
2022/10/07 11:57:25;;;;;;;;;;;20.00;71.30;;;;;;5041618;27;89882;-49
2022/10/07 12:00:07;;;;;;;;;;;20.10;72.20;;;;;;5052622;27;92626;-51
2022/10/07 12:02:36;;;;;;;;;;;20.10;72.20;;;;;;5055359;27;91657;-52
2022/10/07 12:05:02;;;;;;;;;;;20.10;72.40;;;;;;5046752;27;89847;-53
2022/10/07 12:07:34;;;;;;;;;;;20.20;72.60;;;;;;5046023;27;90085;-48
2022/10/07 12:10:02;;;;;;;;;;;20.20;73.30;;;;;;5044426;27;91728;-51
2022/10/07 12:12:46;;;;;;;;;;;20.30;74.00;;;;;;5045041;27;91745;-52
2022/10/07 12:15:28;;;;;;;;;;;20.30;75.00;;;;;;5061367;27;89882;-47
2022/10/07 12:18:03;;;;;;;;;;;20.40;75.60;;;;;;5054054;27;92114;-49
2022/10/07 12:20:47;;;;;;;;;;;20.50;75.30;;;;;;5050769;27;90692;-49
2022/10/07 12:23:15;;;;;;;;;;;20.50;74.80;;;;;;5053498;27;90015;-48
2022/10/07 12:25:43;;;;;;;;;;;20.50;74.30;;;;;;5042452;27;90031;-48
2022/10/07 12:28:17;;;;;;;;;;;20.50;74.20;;;;;;5034902;27;88804;-52
2022/10/07 12:30:53;;;;;;;;;;;20.50;73.90;;;;;;5030194;27;90452;-52
2022/10/07 12:33:42;;;;;;;;;;;20.50;73.90;;;;;;5028437;27;89885;-53
2022/10/07 12:36:20;;;;;;;;;;;20.50;73.70;;;;;;5000110;27;90814;-51
2022/10/07 12:39:08;;;;;;;;;;;20.50;73.70;;;;;;5028301;27;89871;-48
2022/10/07 12:41:34;;;;;;;;;;;20.50;73.60;;;;;;5027776;27;90157;-49
2022/10/07 12:44:15;;;;;;;;;;;20.50;73.50;;;;;;5025013;27;90416;-50
2022/10/07 12:46:46;;;;;;;;;;;20.50;73.40;;;;;;5029438;27;90008;-49
2022/10/07 12:49:14;;;;;;;;;;;20.50;73.30;;;;;;5028048;27;89857;-53
2022/10/07 12:51:42;;;;;;;;;;;20.50;72.90;;;;;;5034790;27;90216;-50
2022/10/07 12:54:15;;;;;;;;;;;20.50;73.10;;;;;;5014018;27;89612;-51
2022/10/07 12:56:41;;;;;;;;;;;20.50;73.00;;;;;;5014919;27;90938;-46
2022/10/07 12:59:46;;;;;;;;;;;20.50;72.20;;;;;;5034721;27;89781;-49
2022/10/07 13:02:30;;;;;;;;;;;20.40;72.60;;;;;;5021936;27;90709;-50
2022/10/07 13:05:14;;;;;;;;;;;20.50;72.70;;;;;;5025519;27;89550;-49
2022/10/07 13:07:49;;;;;;;;;;;20.50;72.80;;;;;;5024968;27;90039;-48
2022/10/07 13:10:43;;;;;;;;;;;20.50;72.50;;;;;;5030772;27;89872;-46
2022/10/07 13:13:13;;;;;;;;;;;20.50;72.40;;;;;;4957967;28;90346;-46
2022/10/07 13:15:44;;;;;;;;;;;20.60;72.30;;;;;;5021582;27;91630;-49
2022/10/07 13:18:19;;;;;;;;;;;20.60;72.30;;;;;;5025151;27;90169;-46
2022/10/07 13:20:56;;;;;;;;;;;20.60;72.10;;;;;;5011893;27;89312;-49
2022/10/07 13:23:22;;;;;;;;;;;20.60;72.00;;;;;;5020140;27;90990;-52
2022/10/07 13:25:52;;;;;;;;;;;20.60;72.00;;;;;;5032582;27;90991;-51
2022/10/07 13:28:21;;;;;;;;;;;20.60;71.90;;;;;;5045202;27;90749;-46
2022/10/07 13:30:48;;;;;;;;;;;20.60;71.60;;;;;;5046984;27;90831;-47
2022/10/07 13:33:21;;;;;;;;;;;20.60;71.60;;;;;;5049072;27;90025;-47
2022/10/07 13:35:48;;;;;;;;;;;20.60;71.50;;;;;;5037739;27;90181;-46
2022/10/07 13:38:27;;;;;;;;;;;20.60;71.50;;;;;;5047561;27;94288;-47
2022/10/07 13:41:18;;;;;;;;;;;20.70;71.20;;;;;;5047721;27;89680;-50
2022/10/07 13:43:44;;;;;;;;;;;20.70;70.90;;;;;;5034187;27;90218;-52
2022/10/07 13:46:11;;;;;;;;;;;20.70;70.50;;;;;;5047286;27;89176;-50
2022/10/07 13:48:41;;;;;;;;;;;20.60;70.20;;;;;;5045329;27;89919;-48
2022/10/07 13:51:06;;;;;;;;;;;20.60;70.10;;;;;;5044310;27;90015;-53
2022/10/07 13:53:35;;;;;;;;;;;20.70;69.90;;;;;;5038314;27;91112;-47
2022/10/07 13:56:05;;;;;;;;;;;20.70;69.90;;;;;;5041350;27;89079;-51
2022/10/07 13:58:32;;;;;;;;;;;20.70;69.60;;;;;;5059380;27;90816;-52
2022/10/07 14:00:57;;;;;;;;;;;20.60;69.60;;;;;;5042377;27;90719;-49
2022/10/07 14:03:23;;;;;;;;;;;20.70;69.70;;;;;;5025330;27;92737;-47
2022/10/07 14:05:50;;;;;;;;;;;20.70;69.50;;;;;;5013428;27;91117;-47
2022/10/07 14:08:23;;;;;;;;;;;20.70;69.50;;;;;;5049801;27;92611;-48
2022/10/07 14:10:49;;;;;;;;;;;20.70;69.40;;;;;;5033704;27;89814;-51
2022/10/07 14:13:15;;;;;;;;;;;20.70;69.30;;;;;;5047051;27;91396;-50
2022/10/07 14:15:46;;;;;;;;;;;20.70;69.20;;;;;;5045477;27;89513;-49
2022/10/07 14:18:13;;;;;;;;;;;20.70;69.10;;;;;;5056447;27;90969;-48
2022/10/07 14:20:40;;;;;;;;;;;20.70;68.90;;;;;;5043378;27;90218;-46
2022/10/07 14:23:06;;;;;;;;;;;20.80;69.10;;;;;;5045852;27;90523;-49
2022/10/07 14:25:51;;;;;;;;;;;20.80;68.90;;;;;;5035520;27;91479;-48
2022/10/07 14:28:19;;;;;;;;;;;20.80;68.90;;;;;;5025847;27;95163;-49
2022/10/07 14:36:36;;;;;;;;;;;20.80;68.60;;;;;;5022437;27;89031;-53
2022/10/07 14:39:21;;;;;;;;;;;20.80;68.30;;;;;;5018999;27;90389;-49
2022/10/07 14:41:47;;;;;;;;;;;20.80;68.10;;;;;;5016517;27;89509;-50